Time;durP1;ratioP1;P1;durP2;ratioP2;P2;SDS_P1;SDS_P2;PMS_P1;PMS_P2;Temp;Humidity;BMP_temperature;BMP_pressure;BME280_temperature;BME280_humidity;BME280_pressure;Samples;Min_cycle;Max_cycle;Signal;HPM_P1;HPM_P2
2023/03/11 00:01:57;;;;;;;6.90;1.88;;;;;;;-0.14;93.03;100638.44;4951909;28;20389;-76
2023/03/11 00:04:22;;;;;;;14.48;1.60;;;;;;;-0.19;94.67;100640.34;4961532;28;20031;-76
2023/03/11 00:06:48;;;;;;;6.45;1.40;;;;;;;-0.23;94.91;100643.16;4971230;28;20054;-77
2023/03/11 00:09:13;;;;;;;4.97;1.50;;;;;;;-0.30;94.19;100639.81;4970870;28;20049;-76
2023/03/11 00:11:39;;;;;;;4.40;1.50;;;;;;;-0.32;93.74;100641.69;4969664;28;20067;-76
2023/03/11 00:14:04;;;;;;;12.95;1.85;;;;;;;-0.40;93.96;100636.56;4952760;28;20039;-76
2023/03/11 00:16:29;;;;;;;3.40;1.35;;;;;;;-0.39;94.36;100645.47;4949767;28;20043;-76
2023/03/11 00:18:55;;;;;;;6.95;1.70;;;;;;;-0.42;94.32;100640.19;4949505;28;20039;-76
2023/03/11 00:21:20;;;;;;;7.00;1.45;;;;;;;-0.46;94.82;100652.81;4951088;29;20042;-76
2023/03/11 00:23:46;;;;;;;5.93;1.23;;;;;;;-0.50;94.96;100652.94;4950894;29;20034;-76
2023/03/11 00:26:11;;;;;;;6.72;1.10;;;;;;;-0.53;94.62;100659.25;4950748;28;20117;-76
2023/03/11 00:28:37;;;;;;;3.42;1.17;;;;;;;-0.57;94.63;100660.25;4951016;28;20043;-77
2023/03/11 00:31:03;;;;;;;2.75;1.30;;;;;;;-0.62;94.80;100660.38;4950302;28;20114;-76
2023/03/11 00:33:28;;;;;;;2.83;1.02;;;;;;;-0.63;95.27;100666.66;4950972;28;20193;-77
2023/03/11 00:35:54;;;;;;;8.98;2.00;;;;;;;-0.66;94.72;100677.41;4933609;29;20068;-77
2023/03/11 00:38:20;;;;;;;8.20;1.17;;;;;;;-0.70;94.36;100677.53;4933315;29;20408;-77
2023/03/11 00:40:46;;;;;;;2.38;1.00;;;;;;;-0.74;95.16;100682.13;4950444;28;20126;-77
2023/03/11 00:43:12;;;;;;;1.55;1.13;;;;;;;-0.79;95.38;100687.59;4950488;29;20039;-77
2023/03/11 00:45:38;;;;;;;7.93;1.10;;;;;;;-0.80;95.61;100691.16;4948995;28;20031;-77
2023/03/11 00:48:04;;;;;;;5.50;1.33;;;;;;;-0.81;95.21;100689.41;4950632;28;20442;-76
2023/03/11 00:50:33;;;;;;;7.95;1.58;;;;;;;-0.84;94.79;100685.94;4949462;29;20027;-77
2023/03/11 00:52:59;;;;;;;5.00;1.15;;;;;;;-0.90;94.96;100686.13;4949701;29;20522;-76
2023/03/11 00:55:27;;;;;;;3.95;0.93;;;;;;;-0.87;94.85;100691.41;4949387;29;20385;-76
2023/03/11 00:57:54;;;;;;;9.07;1.52;;;;;;;-0.90;95.41;100683.47;4950322;28;20523;-76
2023/03/11 01:00:22;;;;;;;5.85;1.20;;;;;;;-1.00;95.46;100677.50;4932553;28;20039;-76
2023/03/11 01:02:48;;;;;;;5.78;1.60;;;;;;;-0.94;95.89;100695.13;4948598;28;20410;-76
2023/03/11 01:05:14;;;;;;;5.03;1.38;;;;;;;-0.98;96.01;100699.72;4949208;28;20039;-75
2023/03/11 01:07:39;;;;;;;3.30;1.63;;;;;;;-1.01;95.96;100705.13;4932840;29;20450;-76
2023/03/11 01:10:09;;;;;;;3.08;1.25;;;;;;;-1.00;95.43;100717.56;4947565;29;20042;-75
2023/03/11 01:12:34;;;;;;;7.13;1.17;;;;;;;-1.01;95.96;100715.81;4950239;29;20400;-75
2023/03/11 01:15:01;;;;;;;4.90;1.20;;;;;;;-1.01;95.84;100720.28;4938745;29;20042;-75
2023/03/11 01:17:27;;;;;;;6.03;1.20;;;;;;;-0.99;96.65;100718.44;4950116;28;20107;-75
2023/03/11 01:19:52;;;;;;;7.85;1.10;;;;;;;-0.99;96.81;100713.97;4947603;29;20072;-75
2023/03/11 01:22:17;;;;;;;3.55;1.55;;;;;;;-0.98;96.90;100723.75;4933502;29;20103;-75
2023/03/11 01:24:43;;;;;;;3.45;1.10;;;;;;;-0.98;97.50;100725.50;4954400;29;20059;-75
2023/03/11 01:27:09;;;;;;;7.63;1.50;;;;;;;-0.97;97.25;100732.63;4938920;29;20082;-75
2023/03/11 01:29:34;;;;;;;5.05;1.30;;;;;;;-0.98;96.83;100726.41;4954177;29;20040;-75
2023/03/11 01:32:02;;;;;;;1.38;0.88;;;;;;;-1.05;96.99;100719.47;4953960;28;20034;-75
2023/03/11 01:34:27;;;;;;;2.90;1.00;;;;;;;-1.06;96.63;100721.28;4952833;28;20035;-75
2023/03/11 01:36:52;;;;;;;7.57;1.60;;;;;;;-1.07;96.44;100715.97;4952818;29;20063;-74
2023/03/11 01:39:18;;;;;;;4.72;1.10;;;;;;;-1.10;95.90;100721.38;4952666;29;20038;-74
2023/03/11 01:41:43;;;;;;;7.45;1.50;;;;;;;-1.10;95.96;100721.38;4951520;29;20043;-74
2023/03/11 01:44:11;;;;;;;9.10;1.40;;;;;;;-1.11;95.83;100716.97;4942128;29;20027;-74
2023/03/11 01:46:52;;;;;;;3.85;1.55;;;;;;;-1.12;95.80;100720.53;4943984;28;20515;-74
2023/03/11 01:49:22;;;;;;;6.43;1.83;;;;;;;-1.15;95.53;100724.19;4952234;28;20118;-75
2023/03/11 01:51:50;;;;;;;3.10;1.30;;;;;;;-1.18;95.54;100723.38;4952437;28;20035;-74
2023/03/11 01:54:33;;;;;;;4.22;1.60;;;;;;;-1.19;96.26;100725.19;4952510;29;20027;-74
2023/03/11 01:57:00;;;;;;;;;;;;;;;-1.18;96.42;100728.72;4952921;28;20049;-74
2023/03/11 01:59:30;;;;;;;3.70;1.25;;;;;;;-1.22;96.93;100721.69;4952444;29;19949;-74
2023/03/11 02:02:14;;;;;;;11.65;1.95;;;;;;;-1.23;96.71;100730.63;4952128;28;20507;-75
2023/03/11 02:04:41;;;;;;;8.18;1.50;;;;;;;-1.27;97.12;100728.94;4951657;28;20034;-75
2023/03/11 02:07:09;;;;;;;7.45;1.48;;;;;;;-1.27;97.13;100728.94;4952158;29;20035;-75
2023/03/11 02:09:35;;;;;;;6.50;1.63;;;;;;;-1.32;97.08;100735.28;4961553;28;20034;-75
2023/03/11 02:12:01;;;;;;;2.33;1.25;;;;;;;-1.31;96.88;100730.81;4955492;28;20375;-75
2023/03/11 02:14:30;;;;;;;7.85;1.63;;;;;;;-1.33;96.46;100732.66;4951462;29;20436;-75
2023/03/11 02:16:57;;;;;;;10.63;1.20;;;;;;;-1.34;97.16;100734.47;4945657;29;20031;-74
2023/03/11 02:19:44;;;;;;;3.50;1.33;;;;;;;-1.34;97.16;100737.13;4942967;29;20031;-75
2023/03/11 02:22:12;;;;;;;5.65;1.13;;;;;;;-1.38;97.54;100735.44;4952051;29;20109;-75
2023/03/11 02:25:13;;;;;;;5.68;1.40;;;;;;;-1.38;97.27;100734.56;4953423;29;20085;-75
2023/03/11 02:27:43;;;;;;;10.57;2.10;;;;;;;-1.43;97.28;100732.03;4953342;29;20106;-75
2023/03/11 02:30:11;;;;;;;2.45;1.40;;;;;;;-1.45;97.87;100739.16;4935691;29;20442;-76
2023/03/11 02:32:38;;;;;;;2.83;1.48;;;;;;;-1.47;97.63;100745.47;4951318;28;20400;-75
2023/03/11 02:35:04;;;;;;;6.60;2.33;;;;;;;-1.50;97.96;100740.19;4951030;28;20109;-75
2023/03/11 02:37:30;;;;;;;4.63;1.10;;;;;;;-1.51;97.82;100738.47;4952273;29;20514;-75
2023/03/11 02:40:32;;;;;;;9.02;1.45;;;;;;;-1.52;97.39;100731.38;4952062;28;20462;-75
2023/03/11 02:43:06;;;;;;;4.95;2.58;;;;;;;-1.54;97.77;100728.72;4951974;28;20039;-75
2023/03/11 02:45:33;;;;;;;3.92;1.30;;;;;;;-1.53;97.88;100737.63;4951204;28;20510;-75
2023/03/11 02:47:59;;;;;;;6.32;1.40;;;;;;;-1.59;97.39;100728.84;4951625;28;20488;-75
2023/03/11 02:50:28;;;;;;;6.00;1.15;;;;;;;-1.61;97.85;100722.69;4935437;29;20059;-75
2023/03/11 02:52:54;;;;;;;5.28;1.67;;;;;;;-1.62;97.70;100734.28;4936837;29;20186;-74
2023/03/11 02:55:22;;;;;;;3.38;1.67;;;;;;;-1.60;98.76;100728.88;4935203;29;20167;-75
2023/03/11 02:57:47;;;;;;;6.55;1.63;;;;;;;-1.63;98.46;100732.53;4952327;28;20083;-75
2023/03/11 03:00:15;;;;;;;4.18;1.38;;;;;;;-1.65;98.21;100726.34;4951268;28;20079;-75
2023/03/11 03:02:50;;;;;;;6.15;1.20;;;;;;;-1.66;98.56;100724.59;4950672;29;20372;-74
2023/03/11 03:05:19;;;;;;;3.65;1.60;;;;;;;-1.69;99.02;100731.78;4968836;28;20035;-74
2023/03/11 03:07:45;;;;;;;4.63;1.45;;;;;;;-1.74;98.53;100728.34;4970605;28;20034;-74
2023/03/11 03:10:11;;;;;;;2.90;1.35;;;;;;;-1.75;98.58;100732.81;4954372;28;20030;-74
2023/03/11 03:12:36;;;;;;;4.88;1.10;;;;;;;-1.75;98.94;100737.25;4954195;28;20049;-74
2023/03/11 03:15:02;;;;;;;4.93;1.50;;;;;;;-1.79;99.50;100741.78;4951967;28;20098;-74
2023/03/11 03:17:27;;;;;;;4.43;1.20;;;;;;;-1.81;100.00;100748.97;4951166;28;20061;-74
2023/03/11 03:19:53;;;;;;;3.67;1.23;;;;;;;-1.85;100.00;100761.47;4950511;28;20068;-74
2023/03/11 03:22:18;;;;;;;9.73;1.85;;;;;;;-1.86;100.00;100762.41;4950413;28;20038;-74
2023/03/11 03:24:45;;;;;;;2.72;1.77;;;;;;;-1.90;100.00;100771.38;4934714;29;20023;-74
2023/03/11 03:27:10;;;;;;;5.57;1.63;;;;;;;-1.87;100.00;100781.06;4950685;29;20398;-74
2023/03/11 03:29:36;;;;;;;6.35;1.55;;;;;;;-1.90;100.00;100771.38;4949351;29;20034;-75
2023/03/11 03:32:02;;;;;;;10.48;1.70;;;;;;;-1.90;100.00;100779.38;4951981;28;20063;-74
2023/03/11 03:34:27;;;;;;;3.75;1.50;;;;;;;-1.89;100.00;100786.44;4949578;29;20078;-74
2023/03/11 03:36:53;;;;;;;4.78;1.50;;;;;;;-1.88;100.00;100785.53;4950386;29;20395;-74
2023/03/11 03:39:18;;;;;;;5.80;1.40;;;;;;;-1.90;100.00;100790.03;4950507;29;20561;-75
2023/03/11 03:41:45;;;;;;;8.07;1.60;;;;;;;-1.88;100.00;100795.31;4950011;28;20118;-74
2023/03/11 03:44:10;;;;;;;7.55;1.40;;;;;;;-1.90;100.00;100797.16;4918375;28;20523;-74
2023/03/11 03:46:37;;;;;;;8.15;1.48;;;;;;;-1.86;100.00;100798.84;4948794;28;20134;-73
2023/03/11 03:49:03;;;;;;;2.92;1.58;;;;;;;-1.88;100.00;100801.53;4934068;29;20027;-73
2023/03/11 03:51:30;;;;;;;9.95;1.55;;;;;;;-1.89;100.00;100799.78;4950465;29;20046;-74
2023/03/11 03:54:02;;;;;;;3.72;1.35;;;;;;;-1.90;100.00;100795.38;4949925;28;20035;-74
2023/03/11 03:56:29;;;;;;;3.38;1.42;;;;;;;-1.86;100.00;100801.50;4951920;29;20387;-74
2023/03/11 03:58:55;;;;;;;7.30;2.20;;;;;;;-1.87;100.00;100800.59;4950001;28;20492;-74
2023/03/11 04:01:23;;;;;;;6.80;1.40;;;;;;;-1.85;100.00;100804.13;4949331;28;20058;-74
2023/03/11 04:03:48;;;;;;;7.97;1.85;;;;;;;-1.85;100.00;100803.25;4949578;28;20031;-74
2023/03/11 04:06:18;;;;;;;4.68;1.60;;;;;;;-1.88;100.00;100808.66;4949569;29;20110;-74
2023/03/11 04:08:44;;;;;;;5.97;1.50;;;;;;;-1.88;100.00;100820.19;4949703;28;20047;-74
2023/03/11 04:11:10;;;;;;;6.82;1.60;;;;;;;-1.89;100.00;100818.44;4933961;29;20415;-74
2023/03/11 04:13:36;;;;;;;5.72;1.98;;;;;;;-1.92;100.00;100809.63;4934091;29;20038;-74
2023/03/11 04:16:04;;;;;;;8.60;1.75;;;;;;;-1.93;100.00;100813.22;4934571;29;20631;-74
2023/03/11 04:18:30;;;;;;;6.57;1.63;;;;;;;-1.95;100.00;100823.03;4946911;29;20070;-74
2023/03/11 04:20:55;;;;;;;11.00;1.95;;;;;;;-1.97;100.00;100814.19;4951095;29;20198;-74
2023/03/11 04:23:21;;;;;;;8.70;1.75;;;;;;;-1.99;100.00;100816.88;4933600;29;20105;-74
2023/03/11 04:25:46;;;;;;;7.13;1.38;;;;;;;-2.00;100.00;100814.25;4949275;29;20066;-74
2023/03/11 04:28:12;;;;;;;2.58;1.50;;;;;;;-2.02;100.00;100821.41;4949410;28;20031;-74
2023/03/11 04:30:38;;;;;;;7.15;1.50;;;;;;;-2.01;100.00;100828.47;4948876;28;20019;-73
2023/03/11 04:33:04;;;;;;;4.72;1.70;;;;;;;-2.03;100.00;100827.66;4950552;28;20570;-74
2023/03/11 04:35:30;;;;;;;5.40;1.63;;;;;;;-2.07;100.00;100822.38;4949771;29;20209;-74
2023/03/11 04:37:55;;;;;;;7.00;1.77;;;;;;;-2.08;100.00;100831.28;4949626;29;20035;-74
2023/03/11 04:40:23;;;;;;;8.15;1.52;;;;;;;-2.10;100.00;100819.78;4949289;29;20046;-73
2023/03/11 04:42:48;;;;;;;4.65;1.75;;;;;;;-2.12;100.00;100826.03;4949278;28;20487;-74
2023/03/11 04:45:14;;;;;;;10.32;2.58;;;;;;;-2.13;100.00;100829.63;4948972;28;20042;-73
2023/03/11 04:47:41;;;;;;;2.65;1.40;;;;;;;-2.17;100.00;100826.16;4947378;29;20031;-73
2023/03/11 04:50:08;;;;;;;3.67;1.40;;;;;;;-2.18;100.00;100827.06;4948908;28;20028;-73
2023/03/11 04:52:34;;;;;;;4.80;1.45;;;;;;;-2.20;100.00;100828.84;4949586;29;20042;-73
2023/03/11 04:54:59;;;;;;;7.95;1.70;;;;;;;-2.21;100.00;100828.91;4949163;28;20035;-73
2023/03/11 04:57:25;;;;;;;6.03;1.50;;;;;;;-2.24;100.00;100820.97;4949399;28;20038;-73
2023/03/11 04:59:50;;;;;;;3.85;1.70;;;;;;;-2.27;100.00;100818.38;4949102;29;20101;-73
2023/03/11 05:02:16;;;;;;;5.38;1.60;;;;;;;-2.29;100.00;100825.50;4948707;28;20035;-73
2023/03/11 05:04:49;;;;;;;5.13;1.75;;;;;;;-2.31;100.00;100833.53;4944165;28;20039;-73
2023/03/11 05:07:15;;;;;;;5.55;1.90;;;;;;;-2.33;100.00;100840.69;4950487;29;20403;-73
2023/03/11 05:09:40;;;;;;;7.45;2.00;;;;;;;-2.38;100.00;100823.91;4933016;29;20447;-73
2023/03/11 05:12:06;;;;;;;3.47;1.17;;;;;;;-2.40;100.00;100831.06;4948584;29;20121;-73
2023/03/11 05:14:34;;;;;;;5.32;1.75;;;;;;;-2.41;100.00;100831.97;4949062;29;20059;-73
2023/03/11 05:16:59;;;;;;;3.45;1.45;;;;;;;-2.46;100.00;100833.84;4948984;28;20110;-73
2023/03/11 05:19:31;;;;;;;4.88;1.52;;;;;;;-2.50;100.00;100842.81;4948775;28;20507;-73
2023/03/11 05:22:01;;;;;;;4.05;1.85;;;;;;;-2.50;100.00;100851.66;4948921;28;20066;-73
2023/03/11 05:24:27;;;;;;;5.30;1.75;;;;;;;-2.55;100.00;100855.31;4949272;29;20046;-73
2023/03/11 05:26:53;;;;;;;2.45;1.45;;;;;;;-2.61;100.00;100843.88;4952496;28;20030;-73
2023/03/11 05:29:19;;;;;;;7.10;2.40;;;;;;;-2.61;100.00;100851.88;4967926;28;20042;-73
2023/03/11 05:31:46;;;;;;;6.75;1.55;;;;;;;-2.64;100.00;100853.72;4947381;28;20770;-73
2023/03/11 05:34:12;;;;;;;2.08;1.40;;;;;;;-2.65;100.00;100862.59;4948616;28;20179;-73
2023/03/11 05:36:38;;;;;;;8.15;1.80;;;;;;;-2.69;100.00;100860.91;4932647;29;20035;-73
2023/03/11 05:39:04;;;;;;;3.08;1.70;;;;;;;-2.72;100.00;100860.94;4916735;28;20149;-73
2023/03/11 05:41:31;;;;;;;4.78;2.00;;;;;;;-2.80;100.00;100855.75;4932927;29;20479;-73
2023/03/11 05:43:56;;;;;;;4.70;1.20;;;;;;;-2.74;100.00;100870.75;4948569;28;20031;-73
2023/03/11 05:46:22;;;;;;;5.88;1.58;;;;;;;-2.80;100.00;100873.50;4948184;28;20043;-72
2023/03/11 05:48:47;;;;;;;3.00;1.25;;;;;;;-2.81;100.00;100869.97;4947902;28;20455;-73
2023/03/11 05:51:13;;;;;;;4.13;1.50;;;;;;;-2.83;100.00;100872.66;4948610;29;20039;-73
2023/03/11 05:53:47;;;;;;;3.38;1.25;;;;;;;-2.86;100.00;100867.38;4948132;28;20093;-72
2023/03/11 05:56:16;;;;;;;4.93;1.55;;;;;;;-2.86;100.00;100882.47;4948180;28;20448;-72
2023/03/11 05:58:42;;;;;;;6.45;1.67;;;;;;;-2.88;100.00;100878.97;4932495;29;20110;-73
2023/03/11 06:01:14;;;;;;;10.20;3.28;;;;;;;-2.90;100.00;100883.44;4948001;28;20488;-72
2023/03/11 06:03:40;;;;;;;2.55;1.80;;;;;;;-2.90;100.00;100880.78;4952659;28;20077;-73
2023/03/11 06:06:07;;;;;;;5.95;1.77;;;;;;;-2.91;100.00;100885.22;4935787;28;20043;-73
2023/03/11 06:08:34;;;;;;;4.00;1.80;;;;;;;-2.94;100.00;100885.28;4952231;28;20033;-73
2023/03/11 06:11:05;;;;;;;3.50;1.70;;;;;;;-2.96;100.00;100892.41;4955608;28;20031;-73
2023/03/11 06:13:31;;;;;;;2.72;1.45;;;;;;;-2.94;100.00;100892.38;4951078;29;20043;-73
2023/03/11 06:15:57;;;;;;;5.28;1.70;;;;;;;-2.97;100.00;100897.75;4936535;29;20027;-73
2023/03/11 06:18:25;;;;;;;5.03;1.90;;;;;;;-2.95;100.00;100894.16;4951567;28;20093;-73
2023/03/11 06:20:52;;;;;;;4.32;1.70;;;;;;;-2.95;100.00;100896.81;4951486;29;20031;-74
2023/03/11 06:23:18;;;;;;;3.85;1.52;;;;;;;-2.94;100.00;100909.25;4951738;29;20399;-73
2023/03/11 06:25:43;;;;;;;9.15;2.03;;;;;;;-2.94;100.00;100917.22;4935436;29;20035;-74
2023/03/11 06:28:10;;;;;;;4.45;1.67;;;;;;;-2.93;100.00;100920.75;4951560;29;20579;-73
2023/03/11 06:30:35;;;;;;;3.90;1.98;;;;;;;-2.94;100.00;100917.22;4951125;28;20023;-73
2023/03/11 06:33:08;;;;;;;5.78;1.80;;;;;;;-2.94;100.00;100914.56;4950021;28;20035;-74
2023/03/11 06:35:33;;;;;;;3.63;1.58;;;;;;;-2.94;100.00;100911.00;4951504;29;20395;-73
2023/03/11 06:37:59;;;;;;;5.22;1.70;;;;;;;-2.91;100.00;100917.16;4951801;28;20043;-73
2023/03/11 06:40:24;;;;;;;4.68;1.45;;;;;;;-2.87;100.00;100918.88;4950764;29;20032;-74
2023/03/11 06:42:50;;;;;;;3.47;1.75;;;;;;;-2.84;100.00;100923.28;4951307;29;20133;-74
2023/03/11 06:45:17;;;;;;;2.38;1.65;;;;;;;-2.82;100.00;100922.34;4950956;28;20073;-74
2023/03/11 06:47:42;;;;;;;4.55;1.70;;;;;;;-2.78;100.00;100930.28;4943364;28;20118;-74
2023/03/11 06:50:09;;;;;;;7.75;1.85;;;;;;;-2.76;100.00;100937.31;4950902;28;20432;-74
2023/03/11 06:52:34;;;;;;;5.47;1.40;;;;;;;-2.71;100.00;100943.44;4935059;29;20395;-74
2023/03/11 06:55:00;;;;;;;2.75;1.60;;;;;;;-2.66;100.00;100951.34;4952781;28;20039;-74
2023/03/11 06:57:28;;;;;;;4.43;1.83;;;;;;;-2.61;100.00;100954.84;4951200;28;20042;-74
2023/03/11 06:59:55;;;;;;;5.35;1.55;;;;;;;-2.28;100.00;100958.72;4937362;29;20234;-75
2023/03/11 07:02:21;;;;;;;2.67;1.67;;;;;;;-1.72;100.00;100961.22;4945001;29;20027;-74
2023/03/11 07:04:49;;;;;;;5.32;1.77;;;;;;;-1.47;100.00;100969.56;4945827;28;20371;-74
2023/03/11 07:07:17;;;;;;;4.65;1.63;;;;;;;-1.16;100.00;100968.00;4950860;29;20043;-74
2023/03/11 07:09:42;;;;;;;5.93;1.98;;;;;;;-0.77;100.00;100968.84;4950861;29;20027;-74
2023/03/11 07:12:12;;;;;;;9.35;2.38;;;;;;;-0.36;100.00;100969.63;4950659;29;20126;-74
2023/03/11 07:14:38;;;;;;;5.38;1.88;;;;;;;0.41;98.48;100970.22;4925084;29;20039;-75
2023/03/11 07:17:04;;;;;;;6.93;1.83;;;;;;;1.07;95.12;100979.81;4950485;28;20031;-74
2023/03/11 07:19:34;;;;;;;5.97;2.55;;;;;;;1.42;92.20;100984.06;4950747;28;20039;-74
2023/03/11 07:22:00;;;;;;;9.55;2.33;;;;;;;1.20;90.55;100975.84;4951242;29;20411;-74
2023/03/11 07:24:25;;;;;;;15.15;2.22;;;;;;;1.22;90.40;100978.50;4950720;28;20035;-75
2023/03/11 07:26:50;;;;;;;6.80;1.60;;;;;;;1.30;90.10;100987.13;4950514;29;20109;-75
2023/03/11 07:29:16;;;;;;;6.55;1.75;;;;;;;1.30;90.36;100988.94;4950661;29;20503;-75
2023/03/11 07:31:41;;;;;;;4.45;1.85;;;;;;;1.33;89.77;100991.53;4952011;28;20035;-75
2023/03/11 07:34:10;;;;;;;4.47;1.70;;;;;;;1.49;89.29;100982.06;4951012;28;20089;-75
2023/03/11 07:36:38;;;;;;;9.45;2.47;;;;;;;1.71;89.12;100998.31;4950839;29;20039;-75
2023/03/11 07:39:04;;;;;;;4.22;1.90;;;;;;;2.02;88.29;100990.97;4950864;28;20039;-75
2023/03/11 07:41:32;;;;;;;4.38;2.00;;;;;;;2.61;86.71;100994.25;4951405;29;20039;-75
2023/03/11 07:43:59;;;;;;;4.22;1.90;;;;;;;3.19;84.91;100986.66;4951307;29;20151;-75
2023/03/11 07:46:26;;;;;;;3.95;2.30;;;;;;;3.92;83.30;100993.50;4950880;28;20436;-75
2023/03/11 07:48:52;;;;;;;5.82;2.10;;;;;;;4.37;80.36;100996.00;4951604;28;20035;-75
2023/03/11 07:51:25;;;;;;;4.35;1.98;;;;;;;4.36;80.08;101002.34;4951767;29;20665;-76
2023/03/11 07:53:53;;;;;;;6.45;1.92;;;;;;;4.30;79.28;101008.00;4951688;29;20483;-76
2023/03/11 07:56:19;;;;;;;3.65;1.58;;;;;;;4.05;79.49;101010.88;4950100;29;20479;-76
2023/03/11 07:58:45;;;;;;;5.03;2.10;;;;;;;3.83;81.59;101010.91;4949898;28;20138;-77
2023/03/11 08:01:15;;;;;;;9.70;2.08;;;;;;;3.68;81.06;101012.41;4936126;29;20050;-76
2023/03/11 08:03:41;;;;;;;3.03;1.90;;;;;;;3.52;81.91;101014.00;4950797;28;20047;-76
2023/03/11 08:06:21;;;;;;;5.82;2.33;;;;;;;3.47;83.06;101016.88;4950128;29;20062;-76
2023/03/11 08:08:48;;;;;;;6.32;1.73;;;;;;;3.44;83.97;101014.28;4934108;29;20050;-76
2023/03/11 08:11:14;;;;;;;5.55;1.80;;;;;;;3.50;85.12;101015.88;4941818;29;20043;-75
2023/03/11 08:13:41;;;;;;;4.85;1.70;;;;;;;3.54;82.86;101021.06;4950994;28;20085;-76
2023/03/11 08:16:08;;;;;;;6.28;1.60;;;;;;;3.59;83.31;101026.25;4950838;28;20102;-75
2023/03/11 08:18:34;;;;;;;4.30;1.65;;;;;;;3.65;84.78;101025.13;4947771;29;20247;-74
2023/03/11 08:21:04;;;;;;;9.52;2.08;;;;;;;3.66;84.02;101021.50;4934344;29;20049;-75
2023/03/11 08:23:29;;;;;;;6.53;1.80;;;;;;;3.79;85.28;101028.13;4951478;29;20122;-75
2023/03/11 08:25:55;;;;;;;6.50;2.45;;;;;;;3.86;83.26;101018.84;4951436;29;20091;-74
2023/03/11 08:28:20;;;;;;;5.90;2.35;;;;;;;4.03;81.45;101016.31;4950839;28;20034;-74
2023/03/11 08:30:45;;;;;;;5.15;1.67;;;;;;;4.14;82.03;101015.84;4949242;28;20035;-74
2023/03/11 08:33:11;;;;;;;4.55;1.65;;;;;;;4.26;81.39;101019.84;4950874;28;20043;-74
2023/03/11 08:35:36;;;;;;;7.75;2.00;;;;;;;4.35;79.70;101020.31;4949525;29;20050;-74
2023/03/11 08:38:02;;;;;;;3.47;1.77;;;;;;;4.26;77.47;101017.16;4950024;29;20126;-75
2023/03/11 08:40:27;;;;;;;6.82;2.13;;;;;;;4.34;79.35;101032.03;4951310;29;20065;-75
2023/03/11 08:42:54;;;;;;;8.05;1.85;;;;;;;4.42;77.83;101037.06;4949322;28;20386;-75
2023/03/11 08:45:19;;;;;;;6.20;1.38;;;;;;;4.50;79.40;101034.06;4951011;29;20106;-75
2023/03/11 08:47:45;;;;;;;6.25;1.70;;;;;;;4.56;77.57;101049.94;4950833;28;20110;-75
2023/03/11 08:50:13;;;;;;;7.45;1.40;;;;;;;4.46;73.15;101051.28;4948755;29;20498;-75
2023/03/11 08:52:38;;;;;;;11.70;2.10;;;;;;;4.23;75.67;101046.91;4951120;29;20553;-75
2023/03/11 08:55:04;;;;;;;3.75;1.25;;;;;;;4.24;70.94;101054.03;4949375;29;20067;-75
2023/03/11 08:57:31;;;;;;;2.40;1.35;;;;;;;4.43;78.40;101048.72;4949960;28;20110;-76
2023/03/11 08:59:59;;;;;;;2.22;1.40;;;;;;;4.60;75.01;101057.81;4950397;28;20514;-76
2023/03/11 09:02:25;;;;;;;5.25;1.83;;;;;;;4.77;78.08;101054.38;4950660;28;20043;-75
2023/03/11 09:04:50;;;;;;;3.60;1.42;;;;;;;4.67;73.98;101062.94;4950823;28;20034;-76
2023/03/11 09:07:16;;;;;;;3.78;1.40;;;;;;;4.62;75.37;101063.16;4950840;29;20122;-76
2023/03/11 09:09:41;;;;;;;4.50;1.45;;;;;;;4.63;71.51;101059.50;4949758;29;20480;-76
2023/03/11 09:12:07;;;;;;;2.95;1.17;;;;;;;4.67;71.84;101060.25;4950991;28;20042;-76
2023/03/11 09:14:34;;;;;;;3.42;1.40;;;;;;;4.55;67.42;101057.16;4949593;29;20513;-77
2023/03/11 09:16:59;;;;;;;2.17;1.55;;;;;;;4.59;69.73;101049.81;4950956;28;20041;-77
2023/03/11 09:19:25;;;;;;;1.63;1.10;;;;;;;4.57;69.78;101060.66;4949038;28;20031;-78
2023/03/11 09:21:50;;;;;;;3.38;1.45;;;;;;;4.51;63.28;101060.91;4950446;29;20059;-78
2023/03/11 09:24:15;;;;;;;4.72;0.95;;;;;;;4.42;59.89;101064.00;4950741;28;20039;-79
2023/03/11 09:26:41;;;;;;;5.22;1.08;;;;;;;4.43;69.74;101070.25;4949185;29;20447;-79
2023/03/11 09:29:06;;;;;;;1.52;1.10;;;;;;;4.58;71.10;101069.63;4949452;29;20179;-79
2023/03/11 09:31:32;;;;;;;9.00;1.73;;;;;;;4.77;71.97;101069.69;4949450;28;20039;-80
2023/03/11 09:33:57;;;;;;;3.05;1.98;;;;;;;4.81;68.30;101069.47;4948648;29;20050;-80
2023/03/11 09:36:23;;;;;;;6.10;2.40;;;;;;;4.86;69.04;101080.03;4948679;29;20031;-80
2023/03/11 09:38:49;;;;;;;7.75;2.90;;;;;;;4.88;65.05;101075.44;4949406;29;20051;-80
2023/03/11 09:41:22;;;;;;;6.78;2.60;;;;;;;5.10;71.29;101083.44;4936495;29;20487;-81
2023/03/11 09:44:09;;;;;;;7.55;2.65;;;;;;;5.34;70.59;101076.91;4950835;28;20031;-81
2023/03/11 09:46:41;;;;;;;6.95;3.58;;;;;;;5.55;70.56;101076.84;4937279;28;20435;-81
2023/03/11 09:49:23;;;;;;;9.27;2.97;;;;;;;5.80;72.47;101084.63;4953312;28;20035;-80
2023/03/11 09:52:01;;;;;;;8.32;2.60;;;;;;;5.83;61.70;101081.78;4952899;29;20039;-81
2023/03/11 09:54:32;;;;;;;3.70;0.85;;;;;;;5.63;60.75;101075.50;4953300;29;20098;-80
2023/03/11 09:57:01;;;;;;;1.25;0.82;;;;;;;5.52;58.79;101076.97;4952808;28;20031;-80
2023/03/11 09:59:31;;;;;;;7.07;1.15;;;;;;;5.45;58.84;101081.78;4953081;29;20134;-79
2023/03/11 10:01:58;;;;;;;3.03;1.08;;;;;;;5.34;61.75;101079.59;4951925;28;20182;-79
2023/03/11 10:04:32;;;;;;;6.53;0.93;;;;;;;5.28;58.09;101087.13;4952951;28;20644;-78
2023/03/11 10:07:01;;;;;;;2.20;1.20;;;;;;;5.09;58.08;101077.19;4937279;29;20035;-78
2023/03/11 10:09:39;;;;;;;3.42;1.08;;;;;;;5.05;60.82;101072.88;4954130;29;20039;-78
2023/03/11 10:12:23;;;;;;;1.30;1.00;;;;;;;5.06;59.74;101074.59;4953818;28;20042;-78
2023/03/11 10:15:23;;;;;;;3.33;1.10;;;;;;;4.93;63.93;101069.84;4952732;29;20042;-77
2023/03/11 10:18:03;;;;;;;7.32;1.00;;;;;;;4.89;60.19;101089.78;4948020;28;20118;-77
2023/03/11 10:20:54;;;;;;;11.77;1.60;;;;;;;4.84;66.26;101077.41;4972909;28;20050;-77
2023/03/11 10:23:46;;;;;;;4.20;1.20;;;;;;;4.83;64.16;101080.16;4973081;28;20039;-77
2023/03/11 10:26:18;;;;;;;2.30;1.00;;;;;;;4.73;60.66;101086.91;4972261;28;20041;-77
2023/03/11 10:28:53;;;;;;;5.65;1.00;;;;;;;4.73;61.59;101084.22;4953182;28;20043;-76
2023/03/11 10:31:25;;;;;;;2.70;0.90;;;;;;;4.76;60.24;101093.06;4953064;28;20046;-77
2023/03/11 10:34:00;;;;;;;3.38;1.35;;;;;;;4.89;62.20;101104.16;4949813;29;20463;-76
2023/03/11 10:36:38;;;;;;;9.57;2.92;;;;;;;5.04;66.69;101100.78;4951463;29;20061;-76
2023/03/11 10:39:05;;;;;;;2.30;0.88;;;;;;;5.02;58.58;101102.66;4952981;28;20093;-76
2023/03/11 10:41:56;;;;;;;5.00;1.85;;;;;;;4.99;63.64;101102.81;4951716;29;20521;-76
2023/03/11 10:44:28;;;;;;;3.10;1.00;;;;;;;5.08;60.12;101104.19;4952915;29;20198;-76
2023/03/11 10:46:53;;;;;;;3.10;0.83;;;;;;;5.18;56.67;101099.28;4952755;28;20506;-76
2023/03/11 10:49:18;;;;;;;2.88;0.85;;;;;;;5.27;62.64;101101.53;4951137;28;20036;-76
2023/03/11 10:51:47;;;;;;;3.35;1.52;;;;;;;5.46;65.86;101099.75;4951239;28;20063;-76
2023/03/11 10:54:38;;;;;;;2.75;1.33;;;;;;;5.63;66.84;101102.50;4951018;28;20045;-76
2023/03/11 10:57:27;;;;;;;3.95;1.00;;;;;;;5.86;65.07;101100.50;4952225;28;20043;-77
2023/03/11 10:59:53;;;;;;;4.97;0.90;;;;;;;5.99;59.52;101100.81;4935085;29;20102;-76
2023/03/11 11:02:22;;;;;;;5.10;0.98;;;;;;;6.26;61.75;101093.19;4952195;28;20031;-77
2023/03/11 11:04:49;;;;;;;1.75;1.10;;;;;;;6.52;64.73;101090.00;4965125;28;20051;-76
2023/03/11 11:07:19;;;;;;;1.90;1.00;;;;;;;6.82;63.98;101103.75;4954432;28;20041;-76
2023/03/11 11:09:44;;;;;;;3.47;1.15;;;;;;;7.03;65.58;101087.31;4954282;28;20546;-76
2023/03/11 11:12:15;;;;;;;1.98;1.30;;;;;;;7.17;64.17;101090.16;4971660;28;20133;-77
2023/03/11 11:14:47;;;;;;;2.92;1.20;;;;;;;7.23;62.62;101097.06;4950129;29;20122;-78
2023/03/11 11:17:31;;;;;;;2.45;1.25;;;;;;;7.25;61.10;101090.63;4951463;28;20039;-79
2023/03/11 11:19:59;;;;;;;3.67;1.20;;;;;;;7.30;58.81;101091.25;4950120;29;20045;-79
2023/03/11 11:22:27;;;;;;;2.55;1.00;;;;;;;7.26;57.49;101095.06;4952079;28;20051;-79
2023/03/11 11:24:54;;;;;;;4.47;1.10;;;;;;;7.22;55.05;101095.31;4952192;29;20042;-79
2023/03/11 11:27:24;;;;;;;3.53;1.45;;;;;;;7.03;50.77;101107.13;4944985;28;20031;-78
2023/03/11 11:30:13;;;;;;;5.90;1.20;;;;;;;6.94;60.85;101104.03;4957687;28;20418;-78